Time;durP1;ratioP1;P1;durP2;ratioP2;P2;SDS_P1;SDS_P2;PMS_P1;PMS_P2;Temp;Humidity;BMP_temperature;BMP_pressure;BME280_temperature;BME280_humidity;BME280_pressure;Samples;Min_cycle;Max_cycle;Signal;HPM_P1;HPM_P2
2021/06/13 00:00:14;;;;;;;8.23;7.22;;;;;;;18.17;69.45;98550.50;1743433;82;21041;-42
2021/06/13 00:02:42;;;;;;;8.70;7.65;;;;;;;18.18;69.36;98547.94;1743231;82;21806;-42
2021/06/13 00:05:11;;;;;;;9.83;7.62;;;;;;;18.16;69.21;98546.98;1742979;82;20961;-42
2021/06/13 00:07:38;;;;;;;11.65;8.30;;;;;;;18.16;69.15;98548.95;1743377;82;21016;-42
2021/06/13 00:10:07;;;;;;;9.70;7.95;;;;;;;18.15;68.97;98544.69;1743191;82;20918;-42
2021/06/13 00:12:34;;;;;;;8.35;7.55;;;;;;;18.15;68.85;98543.31;1743216;82;21005;-42
2021/06/13 00:15:01;;;;;;;8.70;7.67;;;;;;;18.15;68.71;98537.83;1743160;82;23237;-41
2021/06/13 00:17:28;;;;;;;8.78;7.35;;;;;;;18.14;68.65;98528.83;1769287;80;20926;-42
2021/06/13 00:19:55;;;;;;;11.08;7.72;;;;;;;18.13;68.67;98525.91;1773746;80;21057;-42
2021/06/13 00:22:21;;;;;;;12.00;7.67;;;;;;;18.12;68.60;98518.88;1773908;80;20993;-42
2021/06/13 00:24:48;;;;;;;9.65;8.10;;;;;;;18.13;68.54;98518.28;1774016;80;21053;-41
2021/06/13 00:27:14;;;;;;;9.13;7.03;;;;;;;18.13;68.44;98511.42;1773882;80;21223;-41
2021/06/13 00:29:43;;;;;;;9.85;7.62;;;;;;;18.09;68.41;98512.89;1767381;80;21041;-42
2021/06/13 00:32:09;;;;;;;10.63;7.55;;;;;;;18.03;68.73;98513.83;1773780;80;21028;-42
2021/06/13 00:34:36;;;;;;;7.97;6.67;;;;;;;18.02;68.94;98506.19;1773788;80;21017;-41
2021/06/13 00:37:03;;;;;;;12.85;7.17;;;;;;;18.02;68.61;98499.94;1773902;80;21013;-42
2021/06/13 00:39:30;;;;;;;9.30;7.08;;;;;;;18.02;68.45;98498.56;1773773;80;21907;-42
2021/06/13 00:41:59;;;;;;;8.10;7.30;;;;;;;17.98;68.33;98496.52;1773731;80;21019;-41
2021/06/13 00:44:25;;;;;;;9.10;7.05;;;;;;;17.94;68.19;98497.20;1773899;80;21519;-41
2021/06/13 00:46:52;;;;;;;8.33;6.90;;;;;;;17.87;68.23;98491.87;1767563;80;21076;-42
2021/06/13 00:49:20;;;;;;;8.10;7.17;;;;;;;17.80;68.40;98494.22;1773797;80;21594;-41
2021/06/13 00:51:47;;;;;;;9.50;7.08;;;;;;;17.73;68.71;98488.89;1773691;80;21118;-42
2021/06/13 00:54:15;;;;;;;10.38;7.50;;;;;;;17.65;69.27;98492.41;1773629;80;21061;-42
2021/06/13 00:56:41;;;;;;;10.10;6.65;;;;;;;17.56;69.70;98488.09;1773764;80;21053;-42
2021/06/13 00:59:08;;;;;;;10.13;7.22;;;;;;;17.54;69.81;98491.08;1774099;80;20978;-42
2021/06/13 01:01:35;;;;;;;7.60;6.90;;;;;;;17.56;69.47;98489.47;1773700;80;20989;-41
2021/06/13 01:04:03;;;;;;;10.93;6.70;;;;;;;17.56;69.26;98488.09;1774145;80;21099;-42
2021/06/13 01:06:54;;;;;;;8.05;6.85;;;;;;;17.58;69.06;98489.79;1773823;80;20930;-42
2021/06/13 01:09:24;;;;;;;15.20;6.78;;;;;;;17.60;68.87;98486.66;1773829;80;21585;-42
2021/06/13 01:12:02;;;;;;;8.40;6.85;;;;;;;17.50;68.79;98485.68;1774070;80;21077;-42
2021/06/13 01:14:53;;;;;;;10.05;6.92;;;;;;;17.38;68.91;98476.15;1777482;80;21092;-41
2021/06/13 01:17:32;;;;;;;9.30;6.60;;;;;;;17.34;68.94;98472.72;1773790;80;21594;-41
2021/06/13 01:20:24;;;;;;;9.25;6.75;;;;;;;17.31;69.09;98468.70;1773429;80;20997;-41
2021/06/13 01:23:36;;;;;;;8.18;6.95;;;;;;;17.31;69.15;98457.15;1773798;80;20984;-41
2021/06/13 01:26:33;;;;;;;10.35;6.60;;;;;;;17.32;69.28;98452.44;1773839;80;21510;-41
2021/06/13 01:29:30;;;;;;;7.55;6.60;;;;;;;17.32;69.25;98446.96;1774134;80;21025;-42
2021/06/13 01:32:03;;;;;;;10.18;6.30;;;;;;;17.32;69.21;98453.22;1774032;80;21021;-41
2021/06/13 01:34:40;;;;;;;9.83;6.25;;;;;;;17.30;69.11;98452.86;1773950;80;21020;-41
2021/06/13 01:37:11;;;;;;;10.15;6.60;;;;;;;17.27;69.16;98446.87;1774185;80;21000;-41
2021/06/13 01:39:39;;;;;;;9.83;6.53;;;;;;;17.29;69.20;98438.20;1773991;80;21637;-41
2021/06/13 01:42:10;;;;;;;9.63;6.22;;;;;;;17.32;69.15;98437.38;1714718;82;21029;-42
2021/06/13 01:44:43;;;;;;;7.10;5.90;;;;;;;17.35;69.02;98434.55;1715170;83;21124;-41
2021/06/13 01:47:10;;;;;;;10.03;6.22;;;;;;;17.35;68.95;98433.77;1715432;83;21079;-41
2021/06/13 01:49:40;;;;;;;7.45;5.72;;;;;;;17.34;69.02;98434.37;1714967;83;21083;-41
2021/06/13 01:52:09;;;;;;;8.23;6.00;;;;;;;17.33;68.94;98431.45;1715356;83;21004;-41
2021/06/13 01:54:38;;;;;;;7.90;5.80;;;;;;;17.34;68.85;98430.85;1732286;82;21756;-41
2021/06/13 01:57:06;;;;;;;7.20;6.00;;;;;;;17.33;68.83;98421.86;1751341;82;21119;-41
2021/06/13 01:59:41;;;;;;;13.93;6.30;;;;;;;17.34;68.73;98425.38;1714117;83;21037;-42
2021/06/13 02:02:08;;;;;;;8.83;5.83;;;;;;;17.30;68.62;98423.32;1715238;83;21015;-41
2021/06/13 02:04:37;;;;;;;7.65;5.80;;;;;;;17.23;68.73;98422.13;1751182;81;21020;-41
2021/06/13 02:07:05;;;;;;;9.58;5.97;;;;;;;17.17;69.02;98420.49;1750994;81;21064;-41
2021/06/13 02:09:33;;;;;;;10.28;6.25;;;;;;;17.16;69.24;98423.65;1715057;83;21141;-42
2021/06/13 02:12:04;;;;;;;8.88;5.50;;;;;;;17.14;69.31;98419.18;1751386;81;21049;-41
2021/06/13 02:14:34;;;;;;;10.45;6.08;;;;;;;17.13;69.44;98417.66;1751138;82;20942;-42
2021/06/13 02:17:06;;;;;;;8.20;5.60;;;;;;;17.13;69.58;98405.34;1715225;83;21030;-41
2021/06/13 02:19:37;;;;;;;11.25;5.87;;;;;;;17.15;69.59;98413.88;1751146;81;21014;-42
2021/06/13 02:22:05;;;;;;;7.07;5.47;;;;;;;17.14;69.36;98413.70;1714789;83;21555;-41
2021/06/13 02:24:36;;;;;;;10.23;5.87;;;;;;;17.09;69.41;98407.39;1714947;83;21032;-41
2021/06/13 02:27:04;;;;;;;6.33;5.45;;;;;;;17.06;69.60;98410.96;1732463;82;21599;-42
2021/06/13 02:29:32;;;;;;;6.40;5.33;;;;;;;17.07;69.81;98400.96;1732281;82;21045;-41
2021/06/13 02:31:59;;;;;;;8.85;5.40;;;;;;;17.08;69.66;98405.84;1686873;83;21052;-41
2021/06/13 02:34:28;;;;;;;5.83;5.17;;;;;;;17.10;69.72;98408.91;1715045;83;21834;-41
2021/06/13 02:37:01;;;;;;;6.15;5.35;;;;;;;17.15;69.73;98412.52;1715323;83;21032;-41
2021/06/13 02:39:29;;;;;;;6.50;5.28;;;;;;;17.15;69.74;98413.88;1732089;82;21846;-41
2021/06/13 02:41:57;;;;;;;6.97;5.28;;;;;;;17.12;69.69;98403.20;1764465;80;21534;-41
2021/06/13 02:44:25;;;;;;;7.55;5.45;;;;;;;17.11;69.75;98403.61;1782162;80;21032;-42
2021/06/13 02:46:51;;;;;;;8.65;5.67;;;;;;;17.10;69.71;98398.73;1782514;80;21096;-41
2021/06/13 02:49:18;;;;;;;7.55;5.67;;;;;;;17.08;69.74;98399.77;1782013;80;20972;-41
2021/06/13 02:52:02;;;;;;;9.43;5.47;;;;;;;17.05;69.77;98399.83;1782369;80;21037;-41
2021/06/13 02:54:30;;;;;;;7.87;5.20;;;;;;;17.05;69.92;98401.20;1782000;80;21044;-41
2021/06/13 02:57:00;;;;;;;8.83;5.47;;;;;;;17.06;69.97;98398.64;1782251;80;21079;-42
2021/06/13 02:59:48;;;;;;;6.83;5.28;;;;;;;17.11;70.02;98396.17;1782297;80;21774;-41
2021/06/13 03:02:24;;;;;;;6.65;5.58;;;;;;;17.14;69.95;98395.30;1782014;80;21071;-42
2021/06/13 03:04:52;;;;;;;8.23;5.65;;;;;;;17.14;70.08;98389.05;1749564;80;21288;-42
2021/06/13 03:07:20;;;;;;;8.10;5.62;;;;;;;17.19;70.10;98388.55;1782689;80;21514;-42
2021/06/13 03:09:50;;;;;;;7.58;5.40;;;;;;;17.24;70.07;98393.52;1782481;80;20953;-42
2021/06/13 03:12:19;;;;;;;10.78;5.67;;;;;;;17.30;70.03;98391.22;1782198;80;21499;-42
2021/06/13 03:14:48;;;;;;;9.00;5.37;;;;;;;17.35;69.91;98389.94;1782556;80;21021;-42
2021/06/13 03:17:16;;;;;;;7.58;5.50;;;;;;;17.38;69.81;98384.96;1782498;80;21507;-42
2021/06/13 03:19:45;;;;;;;10.05;5.55;;;;;;;17.39;69.81;98387.88;1751785;80;20981;-42
2021/06/13 03:22:11;;;;;;;12.30;5.28;;;;;;;17.41;69.94;98382.75;1777734;80;21021;-42
2021/06/13 03:24:41;;;;;;;5.85;4.95;;;;;;;17.47;69.92;98382.41;1781955;80;21128;-42
2021/06/13 03:27:07;;;;;;;7.55;5.25;;;;;;;17.50;69.91;98377.44;1752008;80;20973;-42
2021/06/13 03:29:42;;;;;;;5.45;4.95;;;;;;;17.50;70.00;98376.06;1782319;80;21024;-42
2021/06/13 03:32:11;;;;;;;8.78;4.92;;;;;;;17.55;70.02;98377.52;1782525;80;20964;-42
2021/06/13 03:34:40;;;;;;;;;;;;;;;17.59;70.12;98370.77;1784895;80;21031;-42
2021/06/13 03:37:09;;;;;;;8.80;5.85;;;;;;;17.65;69.98;98374.55;1782225;80;21481;-42
2021/06/13 03:39:38;;;;;;;5.58;4.85;;;;;;;17.58;70.16;98373.91;1751796;80;20938;-42
2021/06/13 03:42:06;;;;;;;7.35;5.53;;;;;;;17.59;70.28;98378.22;1782201;80;21076;-42
2021/06/13 03:44:34;;;;;;;6.17;5.58;;;;;;;17.63;70.31;98374.79;1782119;80;21503;-42
2021/06/13 03:47:01;;;;;;;5.65;5.15;;;;;;;17.68;70.28;98375.64;1782068;80;20945;-42
2021/06/13 03:49:28;;;;;;;11.05;5.35;;;;;;;17.71;70.44;98379.69;1782159;80;21904;-42
2021/06/13 03:51:54;;;;;;;7.92;5.85;;;;;;;17.72;70.50;98388.05;1782112;80;20949;-42
2021/06/13 03:54:21;;;;;;;9.50;5.75;;;;;;;17.74;70.59;98382.92;1782092;80;21498;-42
2021/06/13 03:56:56;;;;;;;6.28;5.47;;;;;;;17.76;70.71;98375.65;1782122;80;20989;-42
2021/06/13 03:59:24;;;;;;;8.28;5.60;;;;;;;17.82;70.72;98372.53;1782046;80;21760;-42
2021/06/13 04:01:55;;;;;;;6.80;5.70;;;;;;;17.87;70.59;98380.83;1782287;80;21805;-42
2021/06/13 04:04:23;;;;;;;8.68;5.95;;;;;;;17.88;70.53;98381.00;1781933;80;20974;-42
2021/06/13 04:06:49;;;;;;;7.67;5.47;;;;;;;17.89;70.70;98381.19;1782221;80;21067;-42
2021/06/13 04:09:17;;;;;;;5.83;5.22;;;;;;;17.90;70.77;98375.88;1782091;80;21047;-42
2021/06/13 04:11:48;;;;;;;7.72;5.75;;;;;;;17.93;70.89;98379.89;1782247;80;21020;-42
2021/06/13 04:14:14;;;;;;;6.62;5.42;;;;;;;17.98;70.99;98378.59;1782193;80;21763;-42
2021/06/13 04:16:46;;;;;;;8.35;5.30;;;;;;;18.02;71.05;98374.55;1781826;80;20945;-42
2021/06/13 04:19:12;;;;;;;10.03;5.87;;;;;;;18.07;71.37;98373.25;1782143;80;21020;-42
2021/06/13 04:21:39;;;;;;;8.55;5.58;;;;;;;18.12;71.36;98375.45;1751468;80;21609;-42
2021/06/13 04:24:09;;;;;;;6.80;5.30;;;;;;;18.17;71.41;98381.79;1782023;80;21012;-42
2021/06/13 04:26:36;;;;;;;;;;;;;;;18.23;71.57;98375.95;1784731;80;21221;-42
2021/06/13 04:29:03;;;;;;;7.42;5.15;;;;;;;18.31;71.29;98377.87;1781948;80;20159;-42
2021/06/13 04:31:30;;;;;;;7.33;4.65;;;;;;;18.28;71.09;98378.16;1782037;80;21064;-42
2021/06/13 04:33:58;;;;;;;5.62;5.00;;;;;;;18.37;71.25;98377.52;1782090;80;21479;-42
2021/06/13 04:36:25;;;;;;;6.97;5.03;;;;;;;18.46;70.63;98377.05;1782004;80;21100;-42
2021/06/13 04:38:52;;;;;;;8.60;5.08;;;;;;;18.53;70.52;98374.14;1781972;80;21144;-42
2021/06/13 04:41:20;;;;;;;5.62;4.50;;;;;;;18.60;70.13;98373.15;1781985;80;21550;-42
2021/06/13 04:43:47;;;;;;;6.33;4.85;;;;;;;18.66;70.21;98367.29;1781940;80;20984;-42
2021/06/13 04:46:17;;;;;;;6.62;4.40;;;;;;;18.74;69.75;98376.07;1781733;80;21486;-42
2021/06/13 04:48:43;;;;;;;5.42;4.55;;;;;;;18.83;69.80;98379.70;1781892;80;20980;-42
2021/06/13 04:51:11;;;;;;;7.22;4.40;;;;;;;18.93;69.06;98364.88;1782116;80;21091;-42
2021/06/13 04:53:58;;;;;;;7.42;4.25;;;;;;;19.00;68.02;98363.91;1781975;80;21060;-42
2021/06/13 04:56:43;;;;;;;5.83;4.22;;;;;;;19.05;68.42;98364.73;1780056;80;21191;-42
2021/06/13 04:59:09;;;;;;;5.92;4.42;;;;;;;19.14;68.50;98364.06;1782251;80;21008;-42
2021/06/13 05:01:36;;;;;;;6.55;4.62;;;;;;;19.21;67.99;98366.00;1782111;80;21013;-42
2021/06/13 05:04:03;;;;;;;5.95;4.55;;;;;;;19.28;67.73;98357.51;1775508;80;21494;-42
2021/06/13 05:06:30;;;;;;;6.12;4.95;;;;;;;19.33;67.42;98353.44;1782174;80;21064;-42
2021/06/13 05:08:56;;;;;;;9.03;4.90;;;;;;;19.37;67.38;98354.86;1782410;80;21001;-42
2021/06/13 05:11:23;;;;;;;7.58;4.53;;;;;;;19.43;66.97;98357.22;1782315;80;20993;-42
2021/06/13 05:13:50;;;;;;;5.85;4.35;;;;;;;19.50;67.18;98359.77;1782204;80;21510;-42
2021/06/13 05:16:16;;;;;;;4.87;4.30;;;;;;;19.61;67.03;98344.88;1771012;80;21195;-42
2021/06/13 05:18:43;;;;;;;5.67;4.75;;;;;;;19.73;66.51;98350.95;1751109;82;21009;-42
2021/06/13 05:21:10;;;;;;;5.97;4.28;;;;;;;19.82;65.56;98351.80;1751345;82;20910;-42
2021/06/13 05:23:37;;;;;;;5.90;4.17;;;;;;;19.91;65.49;98356.61;1751529;82;20964;-42
2021/06/13 05:26:03;;;;;;;6.62;4.15;;;;;;;20.00;65.91;98351.17;1751308;82;21557;-42
2021/06/13 05:28:30;;;;;;;5.37;3.80;;;;;;;20.13;65.75;98353.28;1751313;82;21145;-42
2021/06/13 05:30:57;;;;;;;4.47;3.25;;;;;;;20.24;63.83;98350.90;1751254;82;21030;-42
2021/06/13 05:33:24;;;;;;;4.67;3.80;;;;;;;20.37;63.38;98355.01;1751546;82;20964;-42
2021/06/13 05:35:50;;;;;;;7.35;4.28;;;;;;;20.48;63.18;98350.48;1751522;82;20997;-42
2021/06/13 05:38:18;;;;;;;4.20;3.80;;;;;;;20.57;60.76;98344.42;1751239;82;20977;-42
2021/06/13 05:40:45;;;;;;;6.90;3.90;;;;;;;20.62;61.34;98345.82;1751204;82;21122;-42
2021/06/13 05:43:12;;;;;;;5.78;4.30;;;;;;;20.70;62.14;98348.45;1746763;82;20981;-42
2021/06/13 05:45:40;;;;;;;4.35;3.42;;;;;;;20.74;60.52;98349.08;1743157;82;20961;-42
2021/06/13 05:48:08;;;;;;;4.92;3.80;;;;;;;20.75;59.76;98356.13;1743262;82;21040;-42
2021/06/13 05:50:35;;;;;;;4.47;3.90;;;;;;;20.79;59.66;98356.76;1743404;82;21017;-42
2021/06/13 05:53:02;;;;;;;6.65;4.20;;;;;;;20.76;59.22;98356.30;1743488;82;21133;-42
2021/06/13 05:55:29;;;;;;;5.62;3.65;;;;;;;20.77;60.00;98357.81;1743050;82;20930;-42
2021/06/13 05:57:56;;;;;;;5.92;3.80;;;;;;;20.79;59.92;98362.27;1743642;82;21546;-42
2021/06/13 06:00:32;;;;;;;6.35;3.70;;;;;;;20.83;59.30;98365.65;1743251;82;21011;-42
2021/06/13 06:02:58;;;;;;;5.87;4.25;;;;;;;20.81;59.44;98368.11;1743516;82;21036;-42
2021/06/13 06:05:25;;;;;;;6.10;4.15;;;;;;;20.84;59.45;98363.06;1743417;82;21887;-42
2021/06/13 06:07:52;;;;;;;7.60;4.50;;;;;;;20.85;60.29;98380.36;1743133;82;20953;-42
2021/06/13 06:10:21;;;;;;;6.33;4.55;;;;;;;20.86;60.23;98375.78;1743446;82;21039;-42
2021/06/13 06:12:48;;;;;;;6.67;4.30;;;;;;;20.83;59.74;98372.53;1743594;82;20961;-42
2021/06/13 06:15:17;;;;;;;7.50;4.20;;;;;;;20.79;60.00;98374.66;1743105;82;21033;-42
2021/06/13 06:17:44;;;;;;;5.03;4.03;;;;;;;20.79;60.87;98378.80;1773459;80;21088;-42
2021/06/13 06:20:13;;;;;;;5.87;4.53;;;;;;;20.89;59.82;98377.63;1774219;80;21538;-42
2021/06/13 06:22:39;;;;;;;6.37;4.17;;;;;;;20.94;59.65;98378.41;1774175;80;21372;-42
2021/06/13 06:25:08;;;;;;;7.20;4.37;;;;;;;20.96;60.80;98377.33;1774166;80;21542;-42
2021/06/13 06:27:37;;;;;;;6.15;4.20;;;;;;;21.01;59.12;98381.52;1774181;80;21001;-42
2021/06/13 06:30:07;;;;;;;5.20;4.70;;;;;;;21.02;59.73;98382.42;1773986;80;21119;-43
2021/06/13 06:32:34;;;;;;;5.85;4.50;;;;;;;21.06;60.13;98383.66;1774208;80;20996;-42
2021/06/13 06:35:01;;;;;;;5.47;4.58;;;;;;;21.09;59.54;98386.29;1774047;80;21029;-42
2021/06/13 06:37:27;;;;;;;5.90;4.58;;;;;;;21.11;59.75;98389.95;1773829;80;21020;-42
2021/06/13 06:39:54;;;;;;;6.20;4.55;;;;;;;21.12;59.57;98383.22;1773967;80;21013;-42
2021/06/13 06:42:21;;;;;;;9.38;4.72;;;;;;;21.15;59.48;98383.13;1774208;80;21266;-43
2021/06/13 06:44:47;;;;;;;7.85;4.58;;;;;;;21.24;59.75;98386.53;1782112;80;20961;-43
2021/06/13 06:47:14;;;;;;;5.12;4.22;;;;;;;21.30;60.35;98388.08;1782262;80;21535;-43
2021/06/13 06:49:41;;;;;;;4.90;4.30;;;;;;;21.44;60.31;98385.52;1782449;80;21072;-42
2021/06/13 06:52:08;;;;;;;5.92;4.20;;;;;;;21.62;59.99;98379.27;1782293;80;20994;-43
2021/06/13 06:54:35;;;;;;;5.60;5.10;;;;;;;21.73;58.77;98386.50;1782134;80;21530;-43
2021/06/13 06:57:03;;;;;;;10.32;4.62;;;;;;;21.75;58.23;98390.16;1781908;80;21001;-43
2021/06/13 06:59:30;;;;;;;4.80;4.40;;;;;;;21.77;59.09;98391.25;1782484;80;21017;-43
2021/06/13 07:01:57;;;;;;;8.58;5.05;;;;;;;21.86;58.78;98385.73;1782065;80;20898;-43
2021/06/13 07:04:23;;;;;;;5.03;4.53;;;;;;;21.94;58.35;98399.41;1782420;80;21620;-43
2021/06/13 07:06:50;;;;;;;7.90;4.37;;;;;;;21.95;58.53;98403.70;1782326;80;21128;-43
2021/06/13 07:09:17;;;;;;;7.33;4.80;;;;;;;22.01;58.07;98407.41;1782036;80;20961;-43
2021/06/13 07:11:43;;;;;;;5.90;4.40;;;;;;;22.05;58.18;98405.25;1782052;80;21016;-43
2021/06/13 07:14:10;;;;;;;5.78;4.80;;;;;;;22.06;58.23;98402.65;1782204;80;21486;-43
2021/06/13 07:16:37;;;;;;;6.78;5.20;;;;;;;22.13;57.05;98403.55;1781993;80;20989;-43
2021/06/13 07:19:03;;;;;;;6.67;4.72;;;;;;;22.09;56.91;98399.56;1782047;80;21106;-43
2021/06/13 07:21:30;;;;;;;6.42;5.00;;;;;;;22.08;57.00;98406.31;1782100;80;21008;-42
2021/06/13 07:23:56;;;;;;;6.42;5.10;;;;;;;22.04;57.78;98404.32;1782264;80;21499;-43
2021/06/13 07:26:23;;;;;;;9.03;5.95;;;;;;;21.98;57.47;98408.91;1782117;80;20937;-43
2021/06/13 07:28:49;;;;;;;6.60;5.50;;;;;;;21.90;58.07;98409.80;1782194;80;21012;-43
2021/06/13 07:31:17;;;;;;;7.15;5.40;;;;;;;21.80;58.52;98409.63;1782106;80;20989;-43
2021/06/13 07:33:44;;;;;;;6.53;4.87;;;;;;;21.75;59.34;98420.50;1751445;80;21029;-43
2021/06/13 07:36:10;;;;;;;7.00;5.25;;;;;;;21.51;58.68;98374.19;1782252;80;20934;-43
2021/06/13 07:38:37;;;;;;;7.58;4.95;;;;;;;21.78;58.65;98420.38;1782028;80;21032;-43
2021/06/13 07:41:04;;;;;;;6.25;5.08;;;;;;;21.76;59.23;98426.95;1782046;80;21020;-43
2021/06/13 07:43:31;;;;;;;7.95;5.42;;;;;;;21.74;58.72;98422.49;1782153;80;21192;-43
2021/06/13 07:45:58;;;;;;;5.60;5.00;;;;;;;21.75;59.21;98430.93;1782391;80;21518;-43
2021/06/13 07:48:24;;;;;;;5.20;4.22;;;;;;;21.71;58.15;98427.55;1782859;80;20989;-43
2021/06/13 07:50:51;;;;;;;5.25;4.17;;;;;;;21.64;58.88;98433.34;1782481;80;21255;-43
2021/06/13 07:53:17;;;;;;;5.85;4.67;;;;;;;21.61;58.69;98438.41;1782617;80;21036;-43
2021/06/13 07:55:44;;;;;;;5.40;4.00;;;;;;;21.63;58.86;98429.08;1782297;80;21193;-43
2021/06/13 07:58:11;;;;;;;6.33;3.95;;;;;;;21.63;59.75;98433.22;1782252;80;21037;-43
2021/06/13 08:00:39;;;;;;;6.12;4.08;;;;;;;21.63;60.36;98441.49;1782366;80;21072;-43
2021/06/13 08:03:06;;;;;;;6.53;4.28;;;;;;;21.65;59.55;98444.55;1782238;80;21011;-43
2021/06/13 08:05:34;;;;;;;4.90;3.45;;;;;;;21.63;59.10;98448.39;1782414;80;21519;-43
2021/06/13 08:08:10;;;;;;;4.78;3.58;;;;;;;21.63;59.48;98441.49;1782773;80;21151;-43
2021/06/13 08:10:39;;;;;;;3.22;2.72;;;;;;;21.75;59.41;98441.97;1782227;80;21027;-43
2021/06/13 08:13:05;;;;;;;3.33;2.72;;;;;;;21.96;59.46;98444.50;1782560;80;20953;-43
2021/06/13 08:15:32;;;;;;;3.83;2.72;;;;;;;22.20;58.26;98450.19;1782252;80;20993;-43
2021/06/13 08:17:59;;;;;;;3.35;2.60;;;;;;;22.27;57.52;98448.52;1782516;80;21013;-43
2021/06/13 08:20:27;;;;;;;3.65;2.50;;;;;;;22.28;57.24;98453.56;1782273;80;21197;-43
2021/06/13 08:22:53;;;;;;;2.80;2.55;;;;;;;22.28;56.95;98452.18;1782610;80;20980;-43
2021/06/13 08:25:20;;;;;;;4.22;2.90;;;;;;;22.28;58.14;98458.31;1782461;80;20925;-42
2021/06/13 08:27:47;;;;;;;3.83;2.98;;;;;;;22.31;57.31;98465.70;1782258;80;20973;-43
2021/06/13 08:30:16;;;;;;;3.83;2.85;;;;;;;22.35;57.14;98466.30;1782471;80;21045;-43
2021/06/13 08:32:43;;;;;;;2.90;2.50;;;;;;;22.31;57.75;98460.17;1782913;80;21161;-43
2021/06/13 08:35:10;;;;;;;2.72;2.37;;;;;;;22.18;57.34;98469.20;1782314;80;20929;-43
2021/06/13 08:37:38;;;;;;;3.30;2.47;;;;;;;22.10;57.85;98462.61;1782587;80;21036;-43
2021/06/13 08:40:07;;;;;;;2.10;1.90;;;;;;;22.13;58.42;98460.14;1782354;80;20921;-43
2021/06/13 08:42:37;;;;;;;2.55;1.75;;;;;;;22.24;58.40;98470.13;1782512;80;21025;-43
2021/06/13 08:45:06;;;;;;;2.52;1.60;;;;;;;22.34;57.04;98477.96;1774529;80;21129;-43
2021/06/13 08:47:32;;;;;;;1.70;1.60;;;;;;;22.25;56.23;98477.96;1773974;80;21555;-43
2021/06/13 08:49:59;;;;;;;1.57;1.47;;;;;;;22.13;57.05;98489.12;1773997;80;20942;-43
2021/06/13 08:52:26;;;;;;;2.45;2.15;;;;;;;21.98;57.68;98495.23;1773798;80;21072;-43
2021/06/13 08:54:52;;;;;;;3.60;2.00;;;;;;;21.75;57.98;98497.14;1742027;80;21093;-43
2021/06/13 08:58:56;;;;;;;3.55;1.67;;;;;;;21.39;58.92;98492.28;1797071;79;22434;-42
2021/06/13 09:01:23;;;;;;;1.87;1.70;;;;;;;21.10;59.46;98497.30;1756950;80;20921;-42
2021/06/13 09:03:50;;;;;;;1.60;1.50;;;;;;;20.99;59.76;98503.20;1757032;81;21144;-42
2021/06/13 09:06:16;;;;;;;1.82;1.35;;;;;;;20.97;59.16;98509.77;1756979;81;21587;-42
2021/06/13 09:08:46;;;;;;;2.72;1.40;;;;;;;20.98;59.34;98504.42;1756791;81;20953;-42
2021/06/13 09:11:33;;;;;;;1.50;1.35;;;;;;;21.04;59.26;98510.89;1719083;81;20989;-42
2021/06/13 09:14:13;;;;;;;1.67;1.25;;;;;;;21.19;59.58;98517.45;1757013;81;20952;-42
2021/06/13 09:16:44;;;;;;;1.42;1.32;;;;;;;21.43;58.65;98525.22;1756994;81;21785;-42
2021/06/13 09:19:11;;;;;;;3.70;1.10;;;;;;;21.50;56.75;98530.45;1756898;81;20929;-42
2021/06/13 09:21:39;;;;;;;1.55;1.45;;;;;;;21.48;56.70;98526.02;1756837;81;20976;-42
2021/06/13 09:24:23;;;;;;;2.05;1.20;;;;;;;21.51;56.60;98523.72;1756831;81;21005;-43
2021/06/13 09:26:52;;;;;;;1.32;1.20;;;;;;;21.54;55.86;98520.07;1756741;81;21052;-42
2021/06/13 09:29:19;;;;;;;1.22;1.12;;;;;;;21.59;56.79;98525.00;1757176;81;21171;-42
2021/06/13 09:31:46;;;;;;;1.32;0.85;;;;;;;21.71;56.39;98523.34;1756784;81;21000;-42
2021/06/13 09:34:15;;;;;;;1.92;0.80;;;;;;;21.74;54.48;98523.19;1756964;81;20934;-42
2021/06/13 09:36:43;;;;;;;1.32;0.80;;;;;;;21.65;54.35;98529.45;1756832;81;20981;-42
2021/06/13 09:39:12;;;;;;;1.07;0.70;;;;;;;21.54;54.18;98524.20;1723709;83;21627;-42
2021/06/13 09:41:42;;;;;;;0.70;0.70;;;;;;;21.44;54.04;98530.30;1723558;83;21526;-42
2021/06/13 09:44:18;;;;;;;0.80;0.72;;;;;;;21.29;52.25;98540.92;1723841;83;21529;-42
2021/06/13 09:46:51;;;;;;;7.03;0.90;;;;;;;21.10;52.12;98538.64;1723421;83;21067;-42
2021/06/13 09:49:19;;;;;;;0.70;0.60;;;;;;;20.93;52.30;98543.57;1723520;83;21546;-42
2021/06/13 09:51:48;;;;;;;1.45;0.68;;;;;;;20.79;53.53;98544.08;1723511;83;21073;-42
2021/06/13 09:54:22;;;;;;;1.15;0.80;;;;;;;20.72;52.74;98548.48;1723794;83;21785;-42
2021/06/13 09:56:53;;;;;;;2.58;0.60;;;;;;;20.71;53.97;98543.58;1722910;83;20940;-42
2021/06/13 09:59:28;;;;;;;1.27;0.70;;;;;;;20.68;53.20;98538.94;1708353;84;21033;-42
2021/06/13 10:01:57;;;;;;;0.75;0.70;;;;;;;20.69;54.03;98544.62;1708099;84;21044;-42
2021/06/13 10:04:33;;;;;;;1.15;0.98;;;;;;;20.69;54.79;98534.98;1708139;84;21123;-42
2021/06/13 10:07:20;;;;;;;1.22;0.90;;;;;;;20.68;54.98;98525.77;1707739;83;21100;-42
2021/06/13 10:09:53;;;;;;;1.22;0.90;;;;;;;20.74;55.70;98531.66;1743240;81;21888;-42
2021/06/13 10:12:20;;;;;;;1.10;0.90;;;;;;;20.82;55.31;98529.41;1743284;82;21507;-42
2021/06/13 10:14:49;;;;;;;0.88;0.88;;;;;;;20.89;55.42;98538.80;1743326;81;21025;-42
2021/06/13 10:17:19;;;;;;;2.55;0.85;;;;;;;20.91;55.20;98539.13;1743103;81;21019;-42
2021/06/13 10:19:48;;;;;;;0.90;0.82;;;;;;;20.97;53.55;98543.44;1743260;82;21123;-42
2021/06/13 10:22:17;;;;;;;0.70;0.70;;;;;;;21.03;54.20;98538.28;1743339;82;20892;-42
2021/06/13 10:24:45;;;;;;;1.60;1.12;;;;;;;21.11;54.54;98539.55;1743195;82;21567;-42
2021/06/13 10:27:17;;;;;;;0.82;0.82;;;;;;;21.14;54.35;98529.05;1743233;82;21037;-42
2021/06/13 10:29:46;;;;;;;1.30;0.85;;;;;;;21.13;54.60;98522.00;1743231;82;21073;-42
2021/06/13 10:32:16;;;;;;;0.93;0.60;;;;;;;21.14;54.46;98531.04;1743477;82;21107;-42
2021/06/13 10:34:42;;;;;;;3.77;0.80;;;;;;;21.11;53.45;98525.77;1743435;82;20986;-42
2021/06/13 10:37:13;;;;;;;2.70;0.78;;;;;;;21.11;53.29;98523.63;1743216;81;20895;-42
2021/06/13 10:39:40;;;;;;;1.12;0.80;;;;;;;21.10;52.69;98522.87;1743298;81;20914;-42
2021/06/13 10:42:13;;;;;;;2.25;0.60;;;;;;;21.10;53.47;98511.09;1685893;84;21088;-42
2021/06/13 10:44:52;;;;;;;0.55;0.55;;;;;;;21.09;53.48;98514.45;1707253;84;21104;-42
2021/06/13 10:47:19;;;;;;;0.88;0.70;;;;;;;21.11;52.74;98516.13;1743659;82;20979;-42
2021/06/13 10:49:56;;;;;;;0.60;0.60;;;;;;;21.08;52.04;98505.23;1743162;82;21025;-42
2021/06/13 10:52:25;;;;;;;1.20;0.88;;;;;;;21.07;52.52;98517.48;1707576;83;21041;-42
2021/06/13 10:54:56;;;;;;;1.35;0.70;;;;;;;21.01;52.52;98525.55;1707351;84;21080;-42
2021/06/13 10:57:32;;;;;;;1.20;0.82;;;;;;;20.96;52.44;98528.14;1707103;82;21623;-42
2021/06/13 11:00:00;;;;;;;1.95;0.88;;;;;;;20.90;52.92;98532.08;1719169;83;20985;-42
2021/06/13 11:02:36;;;;;;;;;;;;;;;20.87;54.07;98539.08;1721970;83;20988;-42
2021/06/13 11:05:05;;;;;;;0.93;0.80;;;;;;;20.85;55.04;98542.30;1719631;83;20496;-42
2021/06/13 11:07:42;;;;;;;2.70;0.70;;;;;;;20.77;54.12;98548.66;1719740;83;21629;-42
2021/06/13 11:10:15;;;;;;;0.70;0.60;;;;;;;20.91;54.06;98541.89;1719450;83;21126;-42
2021/06/13 11:13:02;;;;;;;0.50;0.50;;;;;;;21.08;53.54;98545.98;1719543;83;21550;-42
2021/06/13 11:15:31;;;;;;;0.60;0.60;;;;;;;21.14;52.38;98538.70;1717149;83;21042;-42
2021/06/13 11:18:17;;;;;;;1.07;0.65;;;;;;;21.09;53.49;98546.14;1674662;85;21520;-42
2021/06/13 11:20:54;;;;;;;1.00;0.60;;;;;;;21.01;53.69;98551.73;1674028;85;21057;-42
2021/06/13 11:23:28;;;;;;;1.65;0.75;;;;;;;20.99;53.87;98554.19;1674180;85;21548;-42
2021/06/13 11:25:57;;;;;;;0.75;0.60;;;;;;;21.02;52.60;98554.66;1674034;85;20993;-42
2021/06/13 11:28:30;;;;;;;1.00;0.50;;;;;;;21.16;53.25;98551.41;1674289;85;20993;-42
2021/06/13 11:31:17;;;;;;;0.70;0.60;;;;;;;21.41;52.68;98545.58;1674207;85;21528;-42
2021/06/13 11:33:50;;;;;;;1.35;0.70;;;;;;;21.55;52.54;98544.42;1674270;85;21065;-42
2021/06/13 11:36:23;;;;;;;0.60;0.60;;;;;;;21.68;52.21;98540.20;1674053;85;21612;-42
2021/06/13 11:39:05;;;;;;;0.85;0.60;;;;;;;21.74;50.43;98543.89;1674268;85;20986;-42
2021/06/13 11:41:38;;;;;;;0.75;0.65;;;;;;;21.68;51.09;98542.36;1674102;85;21001;-42
2021/06/13 11:44:09;;;;;;;1.27;0.57;;;;;;;21.61;51.48;98537.10;1674023;85;21026;-42
2021/06/13 11:46:44;;;;;;;0.50;0.50;;;;;;;21.53;51.57;98547.48;1674243;85;21074;-42